SBI3568 LOWW-UUDD
Flight info
| Callsign | SBI3568 |
|---|---|
| Flight time | N/A |
| Altitude | 37000 |
| Route | KOXER Z649 XENAK DCT NIDOK DCT SUPAK L999 BIGLU/K0824F370 T406 RAVOK T52 BILRU BILRU3N |
| Aircraft | B738/M-SDE2E3FGHIRWXY/LB1 |
Departure
| Time | 2026-05-06 14:56 |
|---|---|
| Airport | Vienna International Airport (LOWW) |
Arrival
| Time | N/A |
|---|---|
| Airport | Domodedovo International Airport (UUDD) |
| Time | Latitude | Longitude | Altitude | Speed | Heading |
|---|---|---|---|---|---|
| 2026-05-06 14:55 | 48.05577 | 16.87297 | 9169 ft | 310 kts | 64° |
| 2026-05-06 14:56 | 48.06666 | 16.90095 | 9960 ft | 313 kts | 60° |
| 2026-05-06 14:56 | 48.07828 | 16.92883 | 10674 ft | 319 kts | 59° |
| 2026-05-06 14:56 | 48.09034 | 16.95788 | 11126 ft | 336 kts | 59° |
| 2026-05-06 14:56 | 48.10281 | 16.98813 | 11401 ft | 356 kts | 59° |
| 2026-05-06 14:57 | 48.11552 | 17.02071 | 11704 ft | 373 kts | 65° |
| 2026-05-06 14:57 | 48.12411 | 17.05805 | 12272 ft | 379 kts | 79° |
| 2026-05-06 14:57 | 48.12732 | 17.09731 | 12979 ft | 380 kts | 90° |
| 2026-05-06 14:57 | 48.12659 | 17.13692 | 13715 ft | 382 kts | 97° |
| 2026-05-06 14:58 | 48.12429 | 17.17666 | 14423 ft | 386 kts | 98° |
| 2026-05-06 14:58 | 48.12215 | 17.21711 | 15134 ft | 392 kts | 96° |
| 2026-05-06 14:58 | 48.12150 | 17.25812 | 15850 ft | 399 kts | 89° |
| 2026-05-06 14:58 | 48.12691 | 17.29924 | 16512 ft | 408 kts | 73° |
| 2026-05-06 14:59 | 48.13875 | 17.33790 | 17161 ft | 414 kts | 62° |
| 2026-05-06 14:59 | 48.15454 | 17.37445 | 17814 ft | 419 kts | 55° |
| 2026-05-06 14:59 | 48.17208 | 17.40958 | 18437 ft | 424 kts | 52° |
| 2026-05-06 14:59 | 48.19046 | 17.44451 | 19089 ft | 427 kts | 52° |
| 2026-05-06 15:00 | 48.20884 | 17.47969 | 19750 ft | 429 kts | 52° |
| 2026-05-06 15:00 | 48.22716 | 17.51510 | 20380 ft | 432 kts | 52° |
| 2026-05-06 15:00 | 48.24558 | 17.55102 | 20993 ft | 435 kts | 52° |
| 2026-05-06 15:00 | 48.26406 | 17.58728 | 21596 ft | 437 kts | 52° |
| 2026-05-06 15:01 | 48.28254 | 17.62376 | 22174 ft | 440 kts | 53° |
| 2026-05-06 15:01 | 48.30091 | 17.66016 | 22723 ft | 443 kts | 53° |
| 2026-05-06 15:01 | 48.31954 | 17.69722 | 23265 ft | 445 kts | 53° |
| 2026-05-06 15:01 | 48.33838 | 17.73443 | 23800 ft | 448 kts | 52° |
| 2026-05-06 15:02 | 48.35725 | 17.77156 | 24309 ft | 450 kts | 52° |
| 2026-05-06 15:02 | 48.37630 | 17.80925 | 24806 ft | 453 kts | 52° |
| 2026-05-06 15:02 | 48.39531 | 17.84703 | 25286 ft | 455 kts | 52° |
| 2026-05-06 15:02 | 48.41445 | 17.88519 | 25752 ft | 457 kts | 52° |
| 2026-05-06 15:03 | 48.43372 | 17.92370 | 26202 ft | 460 kts | 52° |
| 2026-05-06 15:03 | 48.45294 | 17.96222 | 26638 ft | 462 kts | 52° |
| 2026-05-06 15:03 | 48.45924 | 17.97487 | 26778 ft | 463 kts | 52° |